TimeMST,TemperatureF,Dew PointF,Humidity,Sea Level PressureIn,VisibilityMPH,Wind Direction,Wind SpeedMPH,Gust SpeedMPH,PrecipitationIn,Events,Conditions,WindDirDegrees,DateUTC
12:55 AM,66.0,34.9,32,29.77,10.0,SE,8.1,-,N/A,,Clear,140,2012-10-20 07:55:00
1:55 AM,65.1,35.6,33,29.76,10.0,SE,6.9,-,N/A,,Clear,140,2012-10-20 08:55:00
2:55 AM,63.9,35.4,35,29.75,10.0,Calm,Calm,-,N/A,,Clear,0,2012-10-20 09:55:00
3:55 AM,62.1,36.3,38,29.74,10.0,SSE,6.9,-,N/A,,Clear,150,2012-10-20 10:55:00
4:55 AM,61.7,36.1,39,29.75,10.0,SE,8.1,-,N/A,,Clear,140,2012-10-20 11:55:00
5:55 AM,61.0,36.1,40,29.78,10.0,SE,11.5,-,N/A,,Clear,130,2012-10-20 12:55:00
6:55 AM,61.3,36.0,39,29.80,10.0,SE,8.1,-,N/A,,Clear,140,2012-10-20 13:55:00
7:55 AM,68.4,36.7,31,29.80,10.0,SE,6.9,-,N/A,,Clear,130,2012-10-20 14:55:00
8:55 AM,74.1,38.8,28,29.80,10.0,Calm,Calm,-,N/A,,Clear,0,2012-10-20 15:55:00
9:55 AM,77.5,37.8,24,29.79,10.0,Calm,Calm,-,N/A,,Clear,0,2012-10-20 16:55:00
10:55 AM,80.4,37.0,21,29.78,10.0,Calm,Calm,-,N/A,,Clear,0,2012-10-20 17:55:00
11:55 AM,82.9,38.5,21,29.76,10.0,SW,5.8,-,N/A,,Clear,230,2012-10-20 18:55:00
12:55 PM,84.6,39.9,21,29.72,10.0,Calm,Calm,-,N/A,,Clear,0,2012-10-20 19:55:00
1:55 PM,86.5,40.3,20,29.70,10.0,Variable,3.5,-,N/A,,Clear,0,2012-10-20 20:55:00
2:55 PM,86.4,41.4,21,29.69,10.0,West,10.4,-,N/A,,Clear,260,2012-10-20 21:55:00
3:55 PM,86.9,41.7,20,29.68,10.0,WNW,5.8,-,N/A,,Clear,300,2012-10-20 22:55:00
4:55 PM,85.6,42.1,22,29.68,10.0,WNW,10.4,-,N/A,,Clear,290,2012-10-20 23:55:00
5:55 PM,82.6,42.4,24,29.70,10.0,West,6.9,-,N/A,,Clear,280,2012-10-21 00:55:00
6:55 PM,80.2,43.9,28,29.72,10.0,WNW,5.8,-,N/A,,Clear,290,2012-10-21 01:55:00
7:55 PM,76.6,43.5,31,29.73,10.0,West,5.8,-,N/A,,Clear,270,2012-10-21 02:55:00
8:55 PM,72.3,43.0,35,29.74,10.0,SSW,5.8,-,N/A,,Clear,200,2012-10-21 03:55:00
9:55 PM,70.7,42.1,35,29.75,10.0,Calm,Calm,-,N/A,,Clear,0,2012-10-21 04:55:00
10:55 PM,68.0,42.4,39,29.75,10.0,SSE,5.8,-,N/A,,Clear,150,2012-10-21 05:55:00
11:55 PM,66.9,44.1,44,29.75,10.0,South,5.8,-,N/A,,Clear,170,2012-10-21 06:55:00